N236G KPVD-KMVY
Flight info
| Callsign | N236G |
|---|---|
| Flight time | 0h 25m |
| Altitude | 3000 |
| Route | PVD V167 TUTOR MVY |
| Aircraft | BE58/L-SDFGRY/C |
Departure
| Time | 2026-05-05 00:17 |
|---|---|
| Airport | Rhode Island T. F. Green International Airport (KPVD) |
Arrival
| Time | 2026-05-05 00:43 |
|---|---|
| Airport | Martha's Vineyard Airport (KMVY) |
| Time | Latitude | Longitude | Altitude | Speed | Heading |
|---|---|---|---|---|---|
| 2026-05-04 23:56 | 41.73154 | -71.42471 | 52 ft | 0 kts | 267° |
| 2026-05-05 00:09 | 41.73176 | -71.42476 | 53 ft | 9 kts | 52° |
| 2026-05-05 00:10 | 41.73157 | -71.42367 | 50 ft | 16 kts | 122° |
| 2026-05-05 00:10 | 41.73103 | -71.42252 | 48 ft | 10 kts | 123° |
| 2026-05-05 00:10 | 41.73077 | -71.42197 | 48 ft | 0 kts | 122° |
| 2026-05-05 00:16 | 41.73073 | -71.42188 | 48 ft | 6 kts | 122° |
| 2026-05-05 00:16 | 41.73021 | -71.42126 | 46 ft | 9 kts | 210° |
| 2026-05-05 00:17 | 41.72779 | -71.42327 | 44 ft | 81 kts | 212° |
| 2026-05-05 00:17 | 41.72220 | -71.42832 | 341 ft | 106 kts | 214° |
| 2026-05-05 00:17 | 41.71607 | -71.43396 | 786 ft | 110 kts | 207° |
| 2026-05-05 00:17 | 41.70847 | -71.43388 | 940 ft | 118 kts | 162° |
| 2026-05-05 00:18 | 41.70168 | -71.42692 | 938 ft | 128 kts | 143° |
| 2026-05-05 00:18 | 41.69532 | -71.41859 | 1028 ft | 125 kts | 147° |
| 2026-05-05 00:18 | 41.68963 | -71.41025 | 1248 ft | 125 kts | 134° |
| 2026-05-05 00:18 | 41.68942 | -71.39798 | 1454 ft | 146 kts | 66° |
| 2026-05-05 00:19 | 41.69525 | -71.38580 | 1710 ft | 161 kts | 61° |
| 2026-05-05 00:19 | 41.69878 | -71.37183 | 1944 ft | 157 kts | 107° |
| 2026-05-05 00:19 | 41.69425 | -71.35949 | 2063 ft | 148 kts | 146° |
| 2026-05-05 00:19 | 41.68687 | -71.35010 | 2319 ft | 144 kts | 155° |
| 2026-05-05 00:20 | 41.67868 | -71.34258 | 2577 ft | 143 kts | 160° |
| 2026-05-05 00:20 | 41.67003 | -71.33592 | 2838 ft | 141 kts | 166° |
| 2026-05-05 00:20 | 41.66099 | -71.33052 | 3006 ft | 148 kts | 167° |
| 2026-05-05 00:20 | 41.65117 | -71.32485 | 3020 ft | 161 kts | 167° |
| 2026-05-05 00:21 | 41.64059 | -71.31853 | 3018 ft | 174 kts | 160° |
| 2026-05-05 00:21 | 41.63026 | -71.30929 | 3017 ft | 181 kts | 156° |
| 2026-05-05 00:21 | 41.61945 | -71.30056 | 3022 ft | 180 kts | 159° |
| 2026-05-05 00:21 | 41.60877 | -71.29238 | 3016 ft | 171 kts | 159° |
| 2026-05-05 00:22 | 41.59882 | -71.28430 | 3010 ft | 166 kts | 156° |
| 2026-05-05 00:22 | 41.58937 | -71.27580 | 3000 ft | 162 kts | 156° |
| 2026-05-05 00:22 | 41.58134 | -71.26439 | 3003 ft | 185 kts | 121° |
| 2026-05-05 00:22 | 41.58042 | -71.24672 | 3005 ft | 204 kts | 77° |
| 2026-05-05 00:23 | 41.58778 | -71.23031 | 3012 ft | 208 kts | 46° |
| 2026-05-05 00:23 | 41.59775 | -71.21640 | 3023 ft | 205 kts | 41° |
| 2026-05-05 00:23 | 41.60819 | -71.20365 | 3017 ft | 203 kts | 38° |
| 2026-05-05 00:23 | 41.61881 | -71.19145 | 3018 ft | 202 kts | 37° |
| 2026-05-05 00:24 | 41.62954 | -71.17923 | 3032 ft | 201 kts | 37° |
| 2026-05-05 00:24 | 41.64006 | -71.16714 | 3031 ft | 201 kts | 38° |
| 2026-05-05 00:24 | 41.65065 | -71.15508 | 3033 ft | 200 kts | 37° |
| 2026-05-05 00:24 | 41.66131 | -71.14294 | 3031 ft | 198 kts | 37° |
| 2026-05-05 00:25 | 41.66985 | -71.12911 | 3019 ft | 192 kts | 65° |
| 2026-05-05 00:25 | 41.67476 | -71.11285 | 3022 ft | 186 kts | 69° |
| 2026-05-05 00:25 | 41.67861 | -71.09671 | 3016 ft | 181 kts | 82° |
| 2026-05-05 00:25 | 41.68031 | -71.08032 | 3018 ft | 176 kts | 90° |
| 2026-05-05 00:26 | 41.68008 | -71.06414 | 3021 ft | 170 kts | 101° |
| 2026-05-05 00:26 | 41.67920 | -71.04846 | 3020 ft | 168 kts | 99° |
| 2026-05-05 00:26 | 41.67847 | -71.03308 | 3019 ft | 166 kts | 101° |
| 2026-05-05 00:26 | 41.67748 | -71.01778 | 3019 ft | 165 kts | 101° |
| 2026-05-05 00:27 | 41.67640 | -71.00233 | 3020 ft | 167 kts | 101° |
| 2026-05-05 00:27 | 41.67513 | -70.98691 | 3021 ft | 167 kts | 104° |
| 2026-05-05 00:27 | 41.67322 | -70.97169 | 3016 ft | 163 kts | 114° |
| 2026-05-05 00:27 | 41.66751 | -70.95932 | 3025 ft | 153 kts | 139° |
| 2026-05-05 00:28 | 41.66088 | -70.94840 | 3025 ft | 152 kts | 139° |
| 2026-05-05 00:28 | 41.65400 | -70.93772 | 3023 ft | 151 kts | 144° |
| 2026-05-05 00:28 | 41.64662 | -70.92775 | 3022 ft | 149 kts | 146° |
| 2026-05-05 00:28 | 41.63929 | -70.91797 | 3024 ft | 150 kts | 146° |
| 2026-05-05 00:29 | 41.63195 | -70.90819 | 3025 ft | 150 kts | 146° |
| 2026-05-05 00:29 | 41.62442 | -70.89829 | 3023 ft | 151 kts | 146° |
| 2026-05-05 00:29 | 41.61698 | -70.88854 | 3022 ft | 150 kts | 146° |
| 2026-05-05 00:29 | 41.60952 | -70.87871 | 3021 ft | 149 kts | 146° |
| 2026-05-05 00:30 | 41.60213 | -70.86915 | 3020 ft | 148 kts | 148° |
| 2026-05-05 00:30 | 41.59452 | -70.86005 | 3021 ft | 146 kts | 151° |
| 2026-05-05 00:30 | 41.58680 | -70.85119 | 3018 ft | 146 kts | 149° |
| 2026-05-05 00:30 | 41.58177 | -70.84518 | 3021 ft | 146 kts | 149° |
| 2026-05-05 00:31 | 41.57245 | -70.83191 | 3021 ft | 156 kts | 121° |
| 2026-05-05 00:31 | 41.56979 | -70.81761 | 3025 ft | 161 kts | 109° |
| 2026-05-05 00:31 | 41.56748 | -70.80306 | 3023 ft | 161 kts | 109° |
| 2026-05-05 00:31 | 41.56595 | -70.79331 | 3024 ft | 163 kts | 109° |
| 2026-05-05 00:32 | 41.56345 | -70.77785 | 3041 ft | 174 kts | 109° |
| 2026-05-05 00:32 | 41.55976 | -70.75632 | 3044 ft | 185 kts | 109° |
| 2026-05-05 00:32 | 41.55774 | -70.74503 | 3055 ft | 190 kts | 109° |
| 2026-05-05 00:32 | 41.55461 | -70.72749 | 3056 ft | 196 kts | 109° |
| 2026-05-05 00:33 | 41.55144 | -70.70973 | 3056 ft | 199 kts | 109° |
| 2026-05-05 00:33 | 41.54820 | -70.69173 | 3052 ft | 201 kts | 109° |
| 2026-05-05 00:33 | 41.54482 | -70.67336 | 3055 ft | 203 kts | 109° |
| 2026-05-05 00:33 | 41.54142 | -70.65511 | 3022 ft | 205 kts | 109° |
| 2026-05-05 00:34 | 41.53799 | -70.63663 | 2898 ft | 207 kts | 109° |
| 2026-05-05 00:34 | 41.53466 | -70.61777 | 2773 ft | 206 kts | 109° |
| 2026-05-05 00:34 | 41.53154 | -70.59945 | 2646 ft | 202 kts | 109° |
| 2026-05-05 00:34 | 41.52849 | -70.58133 | 2518 ft | 201 kts | 109° |
| 2026-05-05 00:35 | 41.52550 | -70.56296 | 2394 ft | 200 kts | 109° |
| 2026-05-05 00:35 | 41.52267 | -70.54490 | 2265 ft | 199 kts | 109° |
| 2026-05-05 00:35 | 41.51997 | -70.52687 | 2135 ft | 199 kts | 109° |
| 2026-05-05 00:35 | 41.51743 | -70.50861 | 2056 ft | 196 kts | 109° |
| 2026-05-05 00:36 | 41.51499 | -70.49096 | 2051 ft | 192 kts | 109° |
| 2026-05-05 00:36 | 41.51265 | -70.47373 | 2046 ft | 189 kts | 109° |
| 2026-05-05 00:36 | 41.51036 | -70.45664 | 2045 ft | 186 kts | 109° |
| 2026-05-05 00:36 | 41.50788 | -70.43970 | 2039 ft | 180 kts | 120° |
| 2026-05-05 00:37 | 41.50082 | -70.42847 | 2047 ft | 146 kts | 170° |
| 2026-05-05 00:37 | 41.49210 | -70.42869 | 2045 ft | 118 kts | 219° |
| 2026-05-05 00:37 | 41.48819 | -70.43784 | 2053 ft | 119 kts | 252° |
| 2026-05-05 00:37 | 41.48625 | -70.44877 | 2058 ft | 123 kts | 252° |
| 2026-05-05 00:38 | 41.48427 | -70.46005 | 2054 ft | 125 kts | 252° |
| 2026-05-05 00:38 | 41.48232 | -70.47136 | 2054 ft | 126 kts | 253° |
| 2026-05-05 00:38 | 41.48038 | -70.48290 | 2053 ft | 127 kts | 253° |
| 2026-05-05 00:38 | 41.47879 | -70.49452 | 2054 ft | 129 kts | 257° |
| 2026-05-05 00:39 | 41.47854 | -70.50656 | 2027 ft | 132 kts | 259° |
| 2026-05-05 00:39 | 41.47431 | -70.51682 | 1957 ft | 126 kts | 226° |
| 2026-05-05 00:39 | 41.46833 | -70.52480 | 1885 ft | 118 kts | 227° |
| 2026-05-05 00:39 | 41.46244 | -70.53219 | 1745 ft | 116 kts | 226° |
| 2026-05-05 00:40 | 41.45645 | -70.53939 | 1591 ft | 117 kts | 224° |
| 2026-05-05 00:40 | 41.45032 | -70.54664 | 1431 ft | 117 kts | 224° |
| 2026-05-05 00:40 | 41.44425 | -70.55360 | 1269 ft | 113 kts | 223° |
| 2026-05-05 00:40 | 41.43829 | -70.56040 | 1115 ft | 113 kts | 223° |
| 2026-05-05 00:41 | 41.43260 | -70.56691 | 966 ft | 103 kts | 222° |
| 2026-05-05 00:41 | 41.42738 | -70.57284 | 828 ft | 92 kts | 223° |
| 2026-05-05 00:41 | 41.42246 | -70.57840 | 732 ft | 95 kts | 220° |
| 2026-05-05 00:41 | 41.41731 | -70.58435 | 582 ft | 100 kts | 220° |
| 2026-05-05 00:42 | 41.41219 | -70.59019 | 457 ft | 98 kts | 221° |
| 2026-05-05 00:42 | 41.40704 | -70.59616 | 319 ft | 98 kts | 214° |
| 2026-05-05 00:42 | 41.40176 | -70.60216 | 207 ft | 100 kts | 216° |
| 2026-05-05 00:42 | 41.39687 | -70.60772 | 72 ft | 83 kts | 218° |
| 2026-05-05 00:43 | 41.39328 | -70.61173 | 63 ft | 54 kts | 221° |
| 2026-05-05 00:43 | 41.39098 | -70.61442 | 61 ft | 23 kts | 221° |
| 2026-05-05 00:43 | 41.39019 | -70.61417 | 60 ft | 14 kts | 134° |
| 2026-05-05 00:43 | 41.39003 | -70.61390 | 57 ft | 0 kts | 128° |
| 2026-05-05 00:44 | 41.38967 | -70.61401 | 60 ft | 11 kts | 220° |
| 2026-05-05 00:44 | 41.38899 | -70.61476 | 58 ft | 15 kts | 213° |
| 2026-05-05 00:44 | 41.38818 | -70.61410 | 59 ft | 15 kts | 152° |
| 2026-05-05 00:45 | 41.38776 | -70.61365 | 60 ft | 2 kts | 131° |
| 2026-05-05 00:45 | 41.38770 | -70.61364 | 59 ft | 0 kts | 204° |